sensor_id;sensor_type;location;lat;lon;timestamp;P1;durP1;ratioP1;P2;durP2;ratioP2
62256;SDS011;48240;52.962;5.790;2023-05-29T03:51:15;6.68;;;1.30;;
62256;SDS011;48240;52.962;5.790;2023-05-29T03:53:41;5.00;;;1.33;;
62256;SDS011;48240;52.962;5.790;2023-05-29T03:56:07;5.75;;;1.48;;
62256;SDS011;48240;52.962;5.790;2023-05-29T03:58:33;4.93;;;1.33;;
62256;SDS011;48240;52.962;5.790;2023-05-29T04:01:01;4.03;;;1.25;;
62256;SDS011;48240;52.962;5.790;2023-05-29T04:03:27;8.63;;;1.67;;
62256;SDS011;48240;52.962;5.790;2023-05-29T04:05:54;5.47;;;1.30;;
62256;SDS011;48240;52.962;5.790;2023-05-29T04:08:20;4.45;;;1.20;;
62256;SDS011;48240;52.962;5.790;2023-05-29T04:10:46;7.13;;;1.40;;
62256;SDS011;48240;52.962;5.790;2023-05-29T04:13:12;6.28;;;1.67;;
62256;SDS011;48240;52.962;5.790;2023-05-29T04:15:39;5.53;;;1.23;;
62256;SDS011;48240;52.962;5.790;2023-05-29T04:18:06;7.97;;;1.23;;
62256;SDS011;48240;52.962;5.790;2023-05-29T04:20:33;6.20;;;1.40;;
62256;SDS011;48240;52.962;5.790;2023-05-29T04:22:59;3.42;;;0.93;;
62256;SDS011;48240;52.962;5.790;2023-05-29T04:25:25;3.58;;;0.93;;
62256;SDS011;48240;52.962;5.790;2023-05-29T04:27:51;9.10;;;1.55;;
62256;SDS011;48240;52.962;5.790;2023-05-29T04:30:17;5.18;;;1.30;;
62256;SDS011;48240;52.962;5.790;2023-05-29T04:32:44;4.88;;;1.20;;
62256;SDS011;48240;52.962;5.790;2023-05-29T04:35:10;7.75;;;1.40;;
62256;SDS011;48240;52.962;5.790;2023-05-29T04:37:36;5.50;;;1.42;;
62256;SDS011;48240;52.962;5.790;2023-05-29T04:40:08;5.43;;;1.25;;
62256;SDS011;48240;52.962;5.790;2023-05-29T04:42:35;7.47;;;1.38;;
62256;SDS011;48240;52.962;5.790;2023-05-29T04:45:02;6.38;;;1.30;;
62256;SDS011;48240;52.962;5.790;2023-05-29T04:47:30;5.93;;;1.48;;
62256;SDS011;48240;52.962;5.790;2023-05-29T04:49:58;5.22;;;1.50;;
62256;SDS011;48240;52.962;5.790;2023-05-29T04:52:24;5.13;;;1.50;;
62256;SDS011;48240;52.962;5.790;2023-05-29T04:54:50;4.68;;;1.10;;
62256;SDS011;48240;52.962;5.790;2023-05-29T04:57:17;6.00;;;1.50;;
62256;SDS011;48240;52.962;5.790;2023-05-29T04:59:43;4.43;;;1.13;;
62256;SDS011;48240;52.962;5.790;2023-05-29T05:02:09;6.50;;;1.27;;
62256;SDS011;48240;52.962;5.790;2023-05-29T05:04:35;5.30;;;1.55;;
62256;SDS011;48240;52.962;5.790;2023-05-29T05:07:02;4.55;;;1.30;;
62256;SDS011;48240;52.962;5.790;2023-05-29T05:09:28;5.13;;;1.40;;
62256;SDS011;48240;52.962;5.790;2023-05-29T05:11:54;8.38;;;1.58;;
62256;SDS011;48240;52.962;5.790;2023-05-29T05:14:21;6.93;;;1.35;;
62256;SDS011;48240;52.962;5.790;2023-05-29T05:16:47;8.45;;;1.27;;
62256;SDS011;48240;52.962;5.790;2023-05-29T05:19:13;5.30;;;1.17;;
62256;SDS011;48240;52.962;5.790;2023-05-29T05:21:39;6.82;;;1.50;;
62256;SDS011;48240;52.962;5.790;2023-05-29T05:24:05;6.93;;;1.30;;
62256;SDS011;48240;52.962;5.790;2023-05-29T05:26:31;5.53;;;1.17;;
62256;SDS011;48240;52.962;5.790;2023-05-29T05:28:57;4.22;;;1.20;;
62256;SDS011;48240;52.962;5.790;2023-05-29T05:31:23;6.40;;;1.58;;
62256;SDS011;48240;52.962;5.790;2023-05-29T05:33:50;5.90;;;1.40;;
62256;SDS011;48240;52.962;5.790;2023-05-29T05:36:16;4.93;;;1.30;;
62256;SDS011;48240;52.962;5.790;2023-05-29T05:38:42;5.60;;;1.40;;
62256;SDS011;48240;52.962;5.790;2023-05-29T05:41:08;5.15;;;1.15;;
62256;SDS011;48240;52.962;5.790;2023-05-29T05:43:35;5.28;;;1.20;;
62256;SDS011;48240;52.962;5.790;2023-05-29T05:46:01;4.22;;;1.23;;
62256;SDS011;48240;52.962;5.790;2023-05-29T05:48:27;4.55;;;1.10;;
62256;SDS011;48240;52.962;5.790;2023-05-29T05:50:53;7.68;;;1.73;;
62256;SDS011;48240;52.962;5.790;2023-05-29T05:53:19;5.65;;;1.25;;
62256;SDS011;48240;52.962;5.790;2023-05-29T05:55:46;5.40;;;1.40;;
62256;SDS011;48240;52.962;5.790;2023-05-29T05:58:12;7.28;;;1.40;;
62256;SDS011;48240;52.962;5.790;2023-05-29T06:00:39;5.03;;;1.30;;
62256;SDS011;48240;52.962;5.790;2023-05-29T06:03:05;4.85;;;1.25;;
62256;SDS011;48240;52.962;5.790;2023-05-29T06:05:31;6.05;;;1.33;;
62256;SDS011;48240;52.962;5.790;2023-05-29T06:07:59;5.60;;;1.20;;
62256;SDS011;48240;52.962;5.790;2023-05-29T06:10:25;7.35;;;1.55;;
62256;SDS011;48240;52.962;5.790;2023-05-29T06:12:51;7.72;;;1.70;;
62256;SDS011;48240;52.962;5.790;2023-05-29T06:15:17;9.05;;;1.52;;
62256;SDS011;48240;52.962;5.790;2023-05-29T06:17:43;9.85;;;1.45;;
62256;SDS011;48240;52.962;5.790;2023-05-29T06:20:10;7.88;;;1.55;;
62256;SDS011;48240;52.962;5.790;2023-05-29T06:22:36;7.78;;;1.70;;
62256;SDS011;48240;52.962;5.790;2023-05-29T06:25:03;9.23;;;1.70;;
62256;SDS011;48240;52.962;5.790;2023-05-29T06:27:29;11.27;;;1.65;;
62256;SDS011;48240;52.962;5.790;2023-05-29T06:29:55;7.15;;;1.75;;
62256;SDS011;48240;52.962;5.790;2023-05-29T06:32:21;7.93;;;1.60;;
62256;SDS011;48240;52.962;5.790;2023-05-29T06:34:47;9.98;;;1.58;;
62256;SDS011;48240;52.962;5.790;2023-05-29T06:37:13;8.40;;;1.65;;
62256;SDS011;48240;52.962;5.790;2023-05-29T06:39:39;10.65;;;1.73;;
62256;SDS011;48240;52.962;5.790;2023-05-29T06:42:07;6.72;;;2.10;;
62256;SDS011;48240;52.962;5.790;2023-05-29T06:44:33;6.72;;;1.45;;
62256;SDS011;48240;52.962;5.790;2023-05-29T06:47:00;11.55;;;2.10;;
62256;SDS011;48240;52.962;5.790;2023-05-29T06:49:26;11.25;;;1.80;;
62256;SDS011;48240;52.962;5.790;2023-05-29T06:51:52;6.53;;;1.88;;
62256;SDS011;48240;52.962;5.790;2023-05-29T06:54:18;8.32;;;1.52;;
62256;SDS011;48240;52.962;5.790;2023-05-29T06:56:44;9.52;;;1.98;;
62256;SDS011;48240;52.962;5.790;2023-05-29T06:59:10;5.50;;;1.50;;
62256;SDS011;48240;52.962;5.790;2023-05-29T07:01:36;11.73;;;2.05;;
62256;SDS011;48240;52.962;5.790;2023-05-29T07:04:02;6.13;;;1.90;;
62256;SDS011;48240;52.962;5.790;2023-05-29T07:06:29;8.85;;;1.70;;
62256;SDS011;48240;52.962;5.790;2023-05-29T07:08:55;15.20;;;1.88;;
62256;SDS011;48240;52.962;5.790;2023-05-29T07:11:21;7.40;;;1.50;;
62256;SDS011;48240;52.962;5.790;2023-05-29T07:13:47;6.15;;;1.70;;
62256;SDS011;48240;52.962;5.790;2023-05-29T07:16:13;8.52;;;1.73;;
62256;SDS011;48240;52.962;5.790;2023-05-29T07:18:39;8.55;;;1.77;;
62256;SDS011;48240;52.962;5.790;2023-05-29T07:21:05;9.57;;;2.00;;
62256;SDS011;48240;52.962;5.790;2023-05-29T07:23:31;9.23;;;1.92;;
62256;SDS011;48240;52.962;5.790;2023-05-29T07:25:57;8.30;;;1.80;;
62256;SDS011;48240;52.962;5.790;2023-05-29T07:28:23;8.25;;;2.05;;
62256;SDS011;48240;52.962;5.790;2023-05-29T07:30:50;10.57;;;1.92;;
62256;SDS011;48240;52.962;5.790;2023-05-29T07:33:16;9.70;;;1.63;;
62256;SDS011;48240;52.962;5.790;2023-05-29T07:35:42;8.05;;;1.98;;
62256;SDS011;48240;52.962;5.790;2023-05-29T07:38:08;7.82;;;1.60;;
62256;SDS011;48240;52.962;5.790;2023-05-29T07:40:34;12.90;;;2.00;;
62256;SDS011;48240;52.962;5.790;2023-05-29T07:43:00;6.80;;;2.03;;
62256;SDS011;48240;52.962;5.790;2023-05-29T07:45:26;11.98;;;2.30;;
62256;SDS011;48240;52.962;5.790;2023-05-29T07:47:52;8.38;;;2.00;;
62256;SDS011;48240;52.962;5.790;2023-05-29T07:50:19;9.73;;;2.13;;
62256;SDS011;48240;52.962;5.790;2023-05-29T07:52:45;8.15;;;2.35;;
62256;SDS011;48240;52.962;5.790;2023-05-29T07:55:11;7.47;;;1.90;;
62256;SDS011;48240;52.962;5.790;2023-05-29T07:57:37;6.97;;;1.98;;
62256;SDS011;48240;52.962;5.790;2023-05-29T08:00:07;10.98;;;2.25;;
62256;SDS011;48240;52.962;5.790;2023-05-29T08:02:34;10.15;;;2.53;;
62256;SDS011;48240;52.962;5.790;2023-05-29T08:05:02;11.52;;;2.50;;
62256;SDS011;48240;52.962;5.790;2023-05-29T08:07:28;8.65;;;2.30;;
62256;SDS011;48240;52.962;5.790;2023-05-29T08:09:54;9.23;;;2.03;;
62256;SDS011;48240;52.962;5.790;2023-05-29T08:12:20;10.52;;;2.10;;
62256;SDS011;48240;52.962;5.790;2023-05-29T08:14:47;8.27;;;2.28;;
62256;SDS011;48240;52.962;5.790;2023-05-29T08:17:13;8.82;;;2.22;;
62256;SDS011;48240;52.962;5.790;2023-05-29T08:19:39;9.70;;;2.30;;
62256;SDS011;48240;52.962;5.790;2023-05-29T08:22:05;16.10;;;2.30;;
62256;SDS011;48240;52.962;5.790;2023-05-29T08:24:31;9.10;;;2.45;;
62256;SDS011;48240;52.962;5.790;2023-05-29T08:26:57;11.75;;;2.45;;
62256;SDS011;48240;52.962;5.790;2023-05-29T08:29:23;11.02;;;2.30;;
62256;SDS011;48240;52.962;5.790;2023-05-29T08:31:49;10.88;;;2.22;;
62256;SDS011;48240;52.962;5.790;2023-05-29T08:34:15;8.90;;;2.38;;
62256;SDS011;48240;52.962;5.790;2023-05-29T08:36:42;11.70;;;2.63;;
62256;SDS011;48240;52.962;5.790;2023-05-29T08:39:08;9.07;;;2.05;;
62256;SDS011;48240;52.962;5.790;2023-05-29T08:44:03;11.40;;;2.40;;
62256;SDS011;48240;52.962;5.790;2023-05-29T08:46:31;10.52;;;2.28;;
62256;SDS011;48240;52.962;5.790;2023-05-29T08:48:58;8.73;;;2.47;;
62256;SDS011;48240;52.962;5.790;2023-05-29T08:51:24;7.32;;;1.95;;
62256;SDS011;48240;52.962;5.790;2023-05-29T08:53:56;9.77;;;2.45;;
62256;SDS011;48240;52.962;5.790;2023-05-29T08:56:22;10.75;;;2.47;;
62256;SDS011;48240;52.962;5.790;2023-05-29T08:58:48;8.40;;;2.20;;
62256;SDS011;48240;52.962;5.790;2023-05-29T09:01:16;11.68;;;2.70;;
62256;SDS011;48240;52.962;5.790;2023-05-29T09:03:42;7.43;;;1.85;;
62256;SDS011;48240;52.962;5.790;2023-05-29T09:06:08;13.98;;;2.90;;
62256;SDS011;48240;52.962;5.790;2023-05-29T09:08:35;10.05;;;2.20;;
62256;SDS011;48240;52.962;5.790;2023-05-29T09:11:02;12.52;;;2.42;;
62256;SDS011;48240;52.962;5.790;2023-05-29T09:13:28;9.45;;;2.20;;
62256;SDS011;48240;52.962;5.790;2023-05-29T09:15:58;13.20;;;2.47;;
62256;SDS011;48240;52.962;5.790;2023-05-29T09:18:28;9.57;;;2.10;;
62256;SDS011;48240;52.962;5.790;2023-05-29T09:20:54;7.97;;;2.20;;
62256;SDS011;48240;52.962;5.790;2023-05-29T09:23:20;14.13;;;2.75;;
62256;SDS011;48240;52.962;5.790;2023-05-29T09:25:46;11.55;;;2.60;;
62256;SDS011;48240;52.962;5.790;2023-05-29T09:28:17;9.57;;;2.33;;
62256;SDS011;48240;52.962;5.790;2023-05-29T09:30:44;9.50;;;2.65;;
62256;SDS011;48240;52.962;5.790;2023-05-29T09:33:12;11.18;;;2.30;;
62256;SDS011;48240;52.962;5.790;2023-05-29T09:35:39;8.55;;;2.35;;
62256;SDS011;48240;52.962;5.790;2023-05-29T09:38:06;11.13;;;2.13;;
62256;SDS011;48240;52.962;5.790;2023-05-29T09:40:33;12.02;;;2.75;;
62256;SDS011;48240;52.962;5.790;2023-05-29T09:43:03;9.32;;;2.08;;
62256;SDS011;48240;52.962;5.790;2023-05-29T09:45:30;11.48;;;2.20;;
62256;SDS011;48240;52.962;5.790;2023-05-29T09:47:56;7.13;;;2.25;;
62256;SDS011;48240;52.962;5.790;2023-05-29T09:50:25;10.90;;;2.22;;
62256;SDS011;48240;52.962;5.790;2023-05-29T09:52:51;12.32;;;2.40;;
62256;SDS011;48240;52.962;5.790;2023-05-29T09:55:21;8.55;;;2.03;;
62256;SDS011;48240;52.962;5.790;2023-05-29T09:57:51;9.07;;;2.17;;
62256;SDS011;48240;52.962;5.790;2023-05-29T10:00:19;10.35;;;2.33;;
62256;SDS011;48240;52.962;5.790;2023-05-29T10:02:48;9.20;;;2.60;;
62256;SDS011;48240;52.962;5.790;2023-05-29T10:05:14;11.13;;;2.40;;
62256;SDS011;48240;52.962;5.790;2023-05-29T10:07:43;8.50;;;2.35;;
62256;SDS011;48240;52.962;5.790;2023-05-29T10:12:39;11.07;;;2.00;;
62256;SDS011;48240;52.962;5.790;2023-05-29T10:15:13;10.35;;;2.75;;
62256;SDS011;48240;52.962;5.790;2023-05-29T10:17:39;10.63;;;2.30;;
62256;SDS011;48240;52.962;5.790;2023-05-29T10:20:08;10.93;;;2.50;;
62256;SDS011;48240;52.962;5.790;2023-05-29T10:22:38;9.20;;;2.30;;
62256;SDS011;48240;52.962;5.790;2023-05-29T10:25:06;15.23;;;2.72;;
62256;SDS011;48240;52.962;5.790;2023-05-29T10:27:33;12.30;;;2.53;;
62256;SDS011;48240;52.962;5.790;2023-05-29T10:30:05;7.82;;;2.47;;
62256;SDS011;48240;52.962;5.790;2023-05-29T10:32:38;9.15;;;2.60;;
62256;SDS011;48240;52.962;5.790;2023-05-29T10:35:18;10.43;;;2.80;;
62256;SDS011;48240;52.962;5.790;2023-05-29T10:37:51;12.23;;;2.80;;
62256;SDS011;48240;52.962;5.790;2023-05-29T10:40:22;10.00;;;2.40;;
62256;SDS011;48240;52.962;5.790;2023-05-29T10:42:49;7.25;;;2.05;;
62256;SDS011;48240;52.962;5.790;2023-05-29T10:50:38;11.57;;;2.50;;
62256;SDS011;48240;52.962;5.790;2023-05-29T10:53:06;8.20;;;1.98;;
62256;SDS011;48240;52.962;5.790;2023-05-29T10:55:35;8.02;;;2.45;;
62256;SDS011;48240;52.962;5.790;2023-05-29T10:58:07;8.27;;;2.20;;
62256;SDS011;48240;52.962;5.790;2023-05-29T11:00:34;11.23;;;2.45;;
62256;SDS011;48240;52.962;5.790;2023-05-29T11:03:08;9.38;;;2.42;;
62256;SDS011;48240;52.962;5.790;2023-05-29T11:05:41;12.80;;;2.70;;
62256;SDS011;48240;52.962;5.790;2023-05-29T11:08:28;12.13;;;2.33;;
62256;SDS011;48240;52.962;5.790;2023-05-29T11:10:56;9.25;;;2.17;;
62256;SDS011;48240;52.962;5.790;2023-05-29T11:13:23;11.00;;;2.35;;
62256;SDS011;48240;52.962;5.790;2023-05-29T11:18:46;8.70;;;2.38;;
62256;SDS011;48240;52.962;5.790;2023-05-29T11:21:29;11.70;;;2.67;;
62256;SDS011;48240;52.962;5.790;2023-05-29T11:23:57;8.02;;;2.20;;
62256;SDS011;48240;52.962;5.790;2023-05-29T11:26:27;9.38;;;2.25;;
62256;SDS011;48240;52.962;5.790;2023-05-29T11:28:54;8.13;;;1.85;;
62256;SDS011;48240;52.962;5.790;2023-05-29T11:31:22;8.32;;;2.28;;
62256;SDS011;48240;52.962;5.790;2023-05-29T11:33:49;13.00;;;2.63;;
62256;SDS011;48240;52.962;5.790;2023-05-29T11:36:19;9.50;;;2.50;;
62256;SDS011;48240;52.962;5.790;2023-05-29T11:38:47;9.30;;;2.30;;
62256;SDS011;48240;52.962;5.790;2023-05-29T11:41:13;7.57;;;2.17;;
62256;SDS011;48240;52.962;5.790;2023-05-29T11:43:39;8.70;;;2.42;;
62256;SDS011;48240;52.962;5.790;2023-05-29T11:46:15;10.85;;;2.47;;
62256;SDS011;48240;52.962;5.790;2023-05-29T11:48:46;6.85;;;2.25;;
62256;SDS011;48240;52.962;5.790;2023-05-29T11:51:12;13.38;;;2.35;;
62256;SDS011;48240;52.962;5.790;2023-05-29T11:53:42;10.80;;;2.03;;
62256;SDS011;48240;52.962;5.790;2023-05-29T11:56:11;6.10;;;1.92;;
62256;SDS011;48240;52.962;5.790;2023-05-29T11:58:38;9.18;;;2.25;;
62256;SDS011;48240;52.962;5.790;2023-05-29T12:01:04;7.05;;;2.10;;
62256;SDS011;48240;52.962;5.790;2023-05-29T12:03:36;8.32;;;2.00;;
62256;SDS011;48240;52.962;5.790;2023-05-29T12:06:03;6.75;;;1.88;;
62256;SDS011;48240;52.962;5.790;2023-05-29T12:08:31;8.90;;;2.30;;
62256;SDS011;48240;52.962;5.790;2023-05-29T12:10:57;9.48;;;2.30;;
62256;SDS011;48240;52.962;5.790;2023-05-29T12:13:23;8.57;;;2.15;;
62256;SDS011;48240;52.962;5.790;2023-05-29T12:15:51;9.15;;;2.15;;
62256;SDS011;48240;52.962;5.790;2023-05-29T12:18:18;10.52;;;2.28;;
62256;SDS011;48240;52.962;5.790;2023-05-29T12:20:44;7.38;;;1.98;;
62256;SDS011;48240;52.962;5.790;2023-05-29T12:23:10;9.65;;;2.20;;
62256;SDS011;48240;52.962;5.790;2023-05-29T12:25:37;10.40;;;2.53;;
62256;SDS011;48240;52.962;5.790;2023-05-29T12:28:03;7.72;;;2.15;;
62256;SDS011;48240;52.962;5.790;2023-05-29T12:30:30;10.80;;;2.47;;
62256;SDS011;48240;52.962;5.790;2023-05-29T12:32:56;9.23;;;2.00;;
62256;SDS011;48240;52.962;5.790;2023-05-29T12:35:25;9.15;;;2.30;;
62256;SDS011;48240;52.962;5.790;2023-05-29T12:37:55;9.75;;;2.42;;
62256;SDS011;48240;52.962;5.790;2023-05-29T12:40:22;10.10;;;2.20;;
62256;SDS011;48240;52.962;5.790;2023-05-29T12:42:52;10.30;;;2.60;;
62256;SDS011;48240;52.962;5.790;2023-05-29T12:45:19;7.30;;;2.00;;
62256;SDS011;48240;52.962;5.790;2023-05-29T12:47:51;7.50;;;2.08;;
62256;SDS011;48240;52.962;5.790;2023-05-29T12:50:22;9.85;;;2.10;;
62256;SDS011;48240;52.962;5.790;2023-05-29T12:55:23;7.35;;;2.15;;
62256;SDS011;48240;52.962;5.790;2023-05-29T12:57:49;13.20;;;2.47;;
62256;SDS011;48240;52.962;5.790;2023-05-29T13:00:15;7.43;;;1.88;;
62256;SDS011;48240;52.962;5.790;2023-05-29T13:02:43;8.27;;;2.13;;
62256;SDS011;48240;52.962;5.790;2023-05-29T13:05:10;7.85;;;2.00;;
62256;SDS011;48240;52.962;5.790;2023-05-29T13:07:36;10.13;;;2.20;;
62256;SDS011;48240;52.962;5.790;2023-05-29T13:10:02;10.15;;;2.40;;
62256;SDS011;48240;52.962;5.790;2023-05-29T13:12:28;8.65;;;2.20;;
62256;SDS011;48240;52.962;5.790;2023-05-29T13:14:54;8.50;;;2.00;;
62256;SDS011;48240;52.962;5.790;2023-05-29T13:17:23;9.70;;;2.28;;
62256;SDS011;48240;52.962;5.790;2023-05-29T13:19:49;6.95;;;2.05;;
62256;SDS011;48240;52.962;5.790;2023-05-29T13:22:15;7.38;;;1.77;;
62256;SDS011;48240;52.962;5.790;2023-05-29T13:24:42;10.95;;;2.28;;
62256;SDS011;48240;52.962;5.790;2023-05-29T13:27:08;6.82;;;1.85;;
62256;SDS011;48240;52.962;5.790;2023-05-29T13:29:34;5.88;;;1.77;;
62256;SDS011;48240;52.962;5.790;2023-05-29T13:32:00;8.90;;;2.08;;
62256;SDS011;48240;52.962;5.790;2023-05-29T13:34:26;6.60;;;2.13;;
62256;SDS011;48240;52.962;5.790;2023-05-29T13:36:56;9.60;;;1.90;;
62256;SDS011;48240;52.962;5.790;2023-05-29T13:39:22;7.55;;;2.13;;
62256;SDS011;48240;52.962;5.790;2023-05-29T13:41:49;6.88;;;1.60;;
62256;SDS011;48240;52.962;5.790;2023-05-29T13:44:15;6.95;;;1.98;;
62256;SDS011;48240;52.962;5.790;2023-05-29T13:46:41;7.18;;;2.05;;
62256;SDS011;48240;52.962;5.790;2023-05-29T13:49:08;6.32;;;1.95;;
62256;SDS011;48240;52.962;5.790;2023-05-29T13:51:34;7.85;;;1.85;;
62256;SDS011;48240;52.962;5.790;2023-05-29T13:54:02;6.25;;;2.00;;
62256;SDS011;48240;52.962;5.790;2023-05-29T13:56:28;6.75;;;1.90;;
62256;SDS011;48240;52.962;5.790;2023-05-29T13:58:54;12.48;;;2.42;;
62256;SDS011;48240;52.962;5.790;2023-05-29T14:01:21;8.00;;;2.45;;
62256;SDS011;48240;52.962;5.790;2023-05-29T14:03:49;10.85;;;2.30;;
62256;SDS011;48240;52.962;5.790;2023-05-29T14:06:15;8.90;;;2.10;;
62256;SDS011;48240;52.962;5.790;2023-05-29T14:08:41;7.57;;;1.80;;
62256;SDS011;48240;52.962;5.790;2023-05-29T14:11:08;9.40;;;2.00;;
62256;SDS011;48240;52.962;5.790;2023-05-29T14:13:34;8.50;;;2.08;;
62256;SDS011;48240;52.962;5.790;2023-05-29T14:16:00;6.63;;;1.90;;
62256;SDS011;48240;52.962;5.790;2023-05-29T14:18:26;7.38;;;1.90;;
62256;SDS011;48240;52.962;5.790;2023-05-29T14:20:52;7.97;;;2.10;;
62256;SDS011;48240;52.962;5.790;2023-05-29T14:23:18;8.57;;;1.85;;
62256;SDS011;48240;52.962;5.790;2023-05-29T14:25:44;9.00;;;2.22;;
62256;SDS011;48240;52.962;5.790;2023-05-29T14:28:10;5.35;;;1.40;;
62256;SDS011;48240;52.962;5.790;2023-05-29T14:30:37;9.05;;;2.00;;
62256;SDS011;48240;52.962;5.790;2023-05-29T14:33:03;8.73;;;2.20;;
62256;SDS011;48240;52.962;5.790;2023-05-29T14:35:29;7.18;;;2.20;;
62256;SDS011;48240;52.962;5.790;2023-05-29T14:37:58;8.02;;;2.15;;
62256;SDS011;48240;52.962;5.790;2023-05-29T14:40:24;10.82;;;2.13;;
62256;SDS011;48240;52.962;5.790;2023-05-29T14:42:50;9.25;;;1.70;;
62256;SDS011;48240;52.962;5.790;2023-05-29T14:45:16;9.52;;;1.75;;
62256;SDS011;48240;52.962;5.790;2023-05-29T14:47:43;9.85;;;2.03;;
62256;SDS011;48240;52.962;5.790;2023-05-29T14:50:09;7.93;;;1.80;;
62256;SDS011;48240;52.962;5.790;2023-05-29T14:52:36;9.40;;;2.50;;
62256;SDS011;48240;52.962;5.790;2023-05-29T14:55:06;4.95;;;1.70;;
62256;SDS011;48240;52.962;5.790;2023-05-29T14:57:32;10.32;;;2.55;;
62256;SDS011;48240;52.962;5.790;2023-05-29T15:00:00;7.10;;;1.60;;
62256;SDS011;48240;52.962;5.790;2023-05-29T15:02:26;7.68;;;1.65;;
62256;SDS011;48240;52.962;5.790;2023-05-29T15:04:52;6.55;;;1.92;;
62256;SDS011;48240;52.962;5.790;2023-05-29T15:07:19;7.75;;;1.60;;
62256;SDS011;48240;52.962;5.790;2023-05-29T15:09:45;8.77;;;1.90;;
62256;SDS011;48240;52.962;5.790;2023-05-29T15:12:11;5.68;;;1.70;;
62256;SDS011;48240;52.962;5.790;2023-05-29T15:14:37;5.70;;;1.63;;
62256;SDS011;48240;52.962;5.790;2023-05-29T15:17:03;8.85;;;2.22;;
62256;SDS011;48240;52.962;5.790;2023-05-29T15:19:29;8.48;;;1.83;;
62256;SDS011;48240;52.962;5.790;2023-05-29T15:21:56;9.20;;;1.75;;
62256;SDS011;48240;52.962;5.790;2023-05-29T15:24:23;8.00;;;1.90;;
62256;SDS011;48240;52.962;5.790;2023-05-29T15:26:49;6.93;;;1.67;;
62256;SDS011;48240;52.962;5.790;2023-05-29T15:29:15;5.60;;;1.80;;
62256;SDS011;48240;52.962;5.790;2023-05-29T15:31:41;4.72;;;1.45;;
62256;SDS011;48240;52.962;5.790;2023-05-29T15:34:07;3.40;;;1.30;;
62256;SDS011;48240;52.962;5.790;2023-05-29T15:36:34;7.18;;;1.80;;
62256;SDS011;48240;52.962;5.790;2023-05-29T15:39:01;6.28;;;1.73;;
62256;SDS011;48240;52.962;5.790;2023-05-29T15:41:28;9.52;;;1.42;;
62256;SDS011;48240;52.962;5.790;2023-05-29T15:43:54;4.18;;;1.40;;
62256;SDS011;48240;52.962;5.790;2023-05-29T15:46:21;5.28;;;1.50;;
62256;SDS011;48240;52.962;5.790;2023-05-29T15:48:47;5.90;;;1.85;;
62256;SDS011;48240;52.962;5.790;2023-05-29T15:51:13;6.28;;;1.70;;
62256;SDS011;48240;52.962;5.790;2023-05-29T15:53:39;6.25;;;1.63;;
62256;SDS011;48240;52.962;5.790;2023-05-29T15:56:05;7.70;;;1.85;;
62256;SDS011;48240;52.962;5.790;2023-05-29T15:58:31;9.10;;;1.80;;
62256;SDS011;48240;52.962;5.790;2023-05-29T16:00:57;7.63;;;1.77;;
62256;SDS011;48240;52.962;5.790;2023-05-29T16:03:23;6.88;;;1.88;;
62256;SDS011;48240;52.962;5.790;2023-05-29T16:05:49;5.75;;;1.60;;
62256;SDS011;48240;52.962;5.790;2023-05-29T16:08:16;8.65;;;2.10;;
62256;SDS011;48240;52.962;5.790;2023-05-29T16:10:42;6.00;;;1.65;;
62256;SDS011;48240;52.962;5.790;2023-05-29T16:13:08;6.15;;;1.45;;
62256;SDS011;48240;52.962;5.790;2023-05-29T16:15:34;5.80;;;1.67;;
62256;SDS011;48240;52.962;5.790;2023-05-29T16:18:00;5.35;;;1.80;;
62256;SDS011;48240;52.962;5.790;2023-05-29T16:20:26;7.97;;;1.88;;
62256;SDS011;48240;52.962;5.790;2023-05-29T16:22:52;6.25;;;1.60;;
62256;SDS011;48240;52.962;5.790;2023-05-29T16:25:21;6.18;;;1.48;;
62256;SDS011;48240;52.962;5.790;2023-05-29T16:27:47;7.65;;;1.48;;
62256;SDS011;48240;52.962;5.790;2023-05-29T16:30:13;7.38;;;1.63;;
62256;SDS011;48240;52.962;5.790;2023-05-29T16:32:39;5.97;;;1.77;;
62256;SDS011;48240;52.962;5.790;2023-05-29T16:35:06;8.60;;;2.05;;
62256;SDS011;48240;52.962;5.790;2023-05-29T16:37:32;7.40;;;1.70;;
62256;SDS011;48240;52.962;5.790;2023-05-29T16:39:58;8.10;;;1.70;;
62256;SDS011;48240;52.962;5.790;2023-05-29T16:42:24;6.57;;;1.75;;
62256;SDS011;48240;52.962;5.790;2023-05-29T16:44:51;7.38;;;1.65;;
62256;SDS011;48240;52.962;5.790;2023-05-29T16:47:17;6.05;;;1.60;;
62256;SDS011;48240;52.962;5.790;2023-05-29T16:49:43;6.57;;;1.60;;
62256;SDS011;48240;52.962;5.790;2023-05-29T16:52:09;3.88;;;1.40;;
62256;SDS011;48240;52.962;5.790;2023-05-29T16:54:35;7.85;;;1.42;;
62256;SDS011;48240;52.962;5.790;2023-05-29T16:57:07;6.95;;;1.60;;
62256;SDS011;48240;52.962;5.790;2023-05-29T16:59:34;7.32;;;1.85;;
62256;SDS011;48240;52.962;5.790;2023-05-29T17:02:00;6.53;;;2.00;;
62256;SDS011;48240;52.962;5.790;2023-05-29T17:04:26;8.52;;;1.70;;
62256;SDS011;48240;52.962;5.790;2023-05-29T17:06:52;10.20;;;1.80;;
62256;SDS011;48240;52.962;5.790;2023-05-29T17:09:18;7.80;;;1.63;;
62256;SDS011;48240;52.962;5.790;2023-05-29T17:11:46;6.85;;;1.73;;
62256;SDS011;48240;52.962;5.790;2023-05-29T17:14:12;5.80;;;1.50;;
62256;SDS011;48240;52.962;5.790;2023-05-29T17:16:38;7.13;;;1.60;;
62256;SDS011;48240;52.962;5.790;2023-05-29T17:19:05;9.02;;;2.10;;
62256;SDS011;48240;52.962;5.790;2023-05-29T17:21:31;9.00;;;1.83;;
62256;SDS011;48240;52.962;5.790;2023-05-29T17:23:57;10.25;;;1.67;;
62256;SDS011;48240;52.962;5.790;2023-05-29T17:26:23;6.70;;;1.52;;
62256;SDS011;48240;52.962;5.790;2023-05-29T17:28:49;5.47;;;1.50;;
62256;SDS011;48240;52.962;5.790;2023-05-29T17:31:16;7.57;;;1.98;;
62256;SDS011;48240;52.962;5.790;2023-05-29T17:33:42;5.13;;;1.60;;
62256;SDS011;48240;52.962;5.790;2023-05-29T17:36:09;10.07;;;2.10;;
62256;SDS011;48240;52.962;5.790;2023-05-29T17:38:36;4.68;;;1.50;;
62256;SDS011;48240;52.962;5.790;2023-05-29T17:41:02;7.57;;;1.70;;
62256;SDS011;48240;52.962;5.790;2023-05-29T17:43:28;3.90;;;1.50;;
62256;SDS011;48240;52.962;5.790;2023-05-29T17:45:55;6.40;;;1.55;;
62256;SDS011;48240;52.962;5.790;2023-05-29T17:48:22;4.25;;;1.48;;
62256;SDS011;48240;52.962;5.790;2023-05-29T17:50:49;8.25;;;1.63;;
62256;SDS011;48240;52.962;5.790;2023-05-29T17:53:15;9.05;;;1.70;;
62256;SDS011;48240;52.962;5.790;2023-05-29T17:55:41;5.45;;;1.75;;
62256;SDS011;48240;52.962;5.790;2023-05-29T17:58:07;7.60;;;1.73;;
62256;SDS011;48240;52.962;5.790;2023-05-29T18:00:35;8.38;;;1.73;;
62256;SDS011;48240;52.962;5.790;2023-05-29T18:03:02;7.68;;;1.60;;
62256;SDS011;48240;52.962;5.790;2023-05-29T18:05:28;7.55;;;1.35;;
62256;SDS011;48240;52.962;5.790;2023-05-29T18:07:54;6.20;;;1.60;;
62256;SDS011;48240;52.962;5.790;2023-05-29T18:10:20;5.28;;;1.50;;
62256;SDS011;48240;52.962;5.790;2023-05-29T18:12:48;5.85;;;1.42;;
62256;SDS011;48240;52.962;5.790;2023-05-29T18:15:15;6.93;;;1.63;;
62256;SDS011;48240;52.962;5.790;2023-05-29T18:17:42;8.57;;;1.50;;
62256;SDS011;48240;52.962;5.790;2023-05-29T18:20:08;8.90;;;1.88;;
62256;SDS011;48240;52.962;5.790;2023-05-29T18:22:34;8.32;;;1.55;;
62256;SDS011;48240;52.962;5.790;2023-05-29T18:25:00;6.05;;;1.15;;
62256;SDS011;48240;52.962;5.790;2023-05-29T18:27:26;8.18;;;1.60;;
62256;SDS011;48240;52.962;5.790;2023-05-29T18:29:52;8.82;;;1.75;;
62256;SDS011;48240;52.962;5.790;2023-05-29T18:32:21;6.95;;;1.50;;
62256;SDS011;48240;52.962;5.790;2023-05-29T18:34:47;5.53;;;1.63;;
62256;SDS011;48240;52.962;5.790;2023-05-29T18:37:14;6.15;;;1.58;;
62256;SDS011;48240;52.962;5.790;2023-05-29T18:39:41;8.77;;;1.58;;
62256;SDS011;48240;52.962;5.790;2023-05-29T18:42:07;9.70;;;1.63;;
62256;SDS011;48240;52.962;5.790;2023-05-29T18:44:33;8.63;;;1.63;;
62256;SDS011;48240;52.962;5.790;2023-05-29T18:46:59;6.22;;;1.40;;
62256;SDS011;48240;52.962;5.790;2023-05-29T18:49:26;4.68;;;1.40;;